sensor_id;sensor_type;location;lat;lon;timestamp;P1;durP1;ratioP1;P2;durP2;ratioP2
35562;SDS011;21665;40.108;18.302;2023-02-15T00:02:04;67.05;;;33.13;;
35562;SDS011;21665;40.108;18.302;2023-02-15T00:04:30;72.80;;;33.85;;
35562;SDS011;21665;40.108;18.302;2023-02-15T00:07:13;86.95;;;36.95;;
35562;SDS011;21665;40.108;18.302;2023-02-15T00:09:41;87.05;;;36.60;;
35562;SDS011;21665;40.108;18.302;2023-02-15T00:12:08;82.22;;;36.78;;
35562;SDS011;21665;40.108;18.302;2023-02-15T00:14:35;88.80;;;37.25;;
35562;SDS011;21665;40.108;18.302;2023-02-15T00:17:02;75.57;;;34.42;;
35562;SDS011;21665;40.108;18.302;2023-02-15T00:19:28;78.47;;;35.67;;
35562;SDS011;21665;40.108;18.302;2023-02-15T00:21:54;80.75;;;35.25;;
35562;SDS011;21665;40.108;18.302;2023-02-15T00:24:21;84.00;;;36.55;;
35562;SDS011;21665;40.108;18.302;2023-02-15T00:26:47;82.78;;;35.53;;
35562;SDS011;21665;40.108;18.302;2023-02-15T00:29:15;87.80;;;37.45;;
35562;SDS011;21665;40.108;18.302;2023-02-15T00:31:51;86.78;;;35.83;;
35562;SDS011;21665;40.108;18.302;2023-02-15T00:34:20;78.63;;;36.97;;
35562;SDS011;21665;40.108;18.302;2023-02-15T00:36:48;99.28;;;39.30;;
35562;SDS011;21665;40.108;18.302;2023-02-15T00:39:16;97.55;;;40.55;;
35562;SDS011;21665;40.108;18.302;2023-02-15T00:41:43;99.00;;;41.45;;
35562;SDS011;21665;40.108;18.302;2023-02-15T00:44:10;102.85;;;42.10;;
35562;SDS011;21665;40.108;18.302;2023-02-15T00:46:37;98.18;;;40.30;;
35562;SDS011;21665;40.108;18.302;2023-02-15T00:49:04;100.38;;;39.47;;
35562;SDS011;21665;40.108;18.302;2023-02-15T00:51:31;111.45;;;43.33;;
35562;SDS011;21665;40.108;18.302;2023-02-15T00:53:58;101.45;;;41.45;;
35562;SDS011;21665;40.108;18.302;2023-02-15T00:56:25;103.57;;;43.78;;
35562;SDS011;21665;40.108;18.302;2023-02-15T00:58:57;108.25;;;43.92;;
35562;SDS011;21665;40.108;18.302;2023-02-15T01:01:23;96.18;;;43.13;;
35562;SDS011;21665;40.108;18.302;2023-02-15T01:03:54;101.53;;;42.80;;
35562;SDS011;21665;40.108;18.302;2023-02-15T01:06:20;111.03;;;44.92;;
35562;SDS011;21665;40.108;18.302;2023-02-15T01:08:47;94.32;;;44.05;;
35562;SDS011;21665;40.108;18.302;2023-02-15T01:11:14;108.80;;;41.92;;
35562;SDS011;21665;40.108;18.302;2023-02-15T01:13:51;108.53;;;46.08;;
35562;SDS011;21665;40.108;18.302;2023-02-15T01:16:19;104.75;;;44.00;;
35562;SDS011;21665;40.108;18.302;2023-02-15T01:18:46;112.72;;;46.33;;
35562;SDS011;21665;40.108;18.302;2023-02-15T01:21:15;105.22;;;46.03;;
35562;SDS011;21665;40.108;18.302;2023-02-15T01:23:44;107.97;;;46.42;;
35562;SDS011;21665;40.108;18.302;2023-02-15T01:26:12;116.35;;;45.92;;
35562;SDS011;21665;40.108;18.302;2023-02-15T01:28:38;106.28;;;45.92;;
35562;SDS011;21665;40.108;18.302;2023-02-15T01:31:05;99.07;;;45.85;;
35562;SDS011;21665;40.108;18.302;2023-02-15T01:33:37;101.70;;;45.72;;
35562;SDS011;21665;40.108;18.302;2023-02-15T01:36:04;93.50;;;42.15;;
35562;SDS011;21665;40.108;18.302;2023-02-15T01:38:31;107.22;;;45.97;;
35562;SDS011;21665;40.108;18.302;2023-02-15T01:40:58;106.95;;;45.65;;
35562;SDS011;21665;40.108;18.302;2023-02-15T01:43:49;105.72;;;44.63;;
35562;SDS011;21665;40.108;18.302;2023-02-15T01:46:19;98.50;;;44.22;;
35562;SDS011;21665;40.108;18.302;2023-02-15T01:48:54;100.63;;;44.88;;
35562;SDS011;21665;40.108;18.302;2023-02-15T01:51:28;103.32;;;45.10;;
35562;SDS011;21665;40.108;18.302;2023-02-15T01:54:01;101.70;;;43.40;;
35562;SDS011;21665;40.108;18.302;2023-02-15T01:56:37;90.32;;;40.22;;
35562;SDS011;21665;40.108;18.302;2023-02-15T01:59:07;97.70;;;42.83;;
35562;SDS011;21665;40.108;18.302;2023-02-15T02:01:47;95.90;;;43.10;;
35562;SDS011;21665;40.108;18.302;2023-02-15T02:04:35;91.57;;;40.53;;
35562;SDS011;21665;40.108;18.302;2023-02-15T02:07:31;88.15;;;39.72;;
35562;SDS011;21665;40.108;18.302;2023-02-15T02:10:01;94.30;;;41.10;;
35562;SDS011;21665;40.108;18.302;2023-02-15T02:12:32;89.68;;;40.65;;
35562;SDS011;21665;40.108;18.302;2023-02-15T02:15:01;84.07;;;39.30;;
35562;SDS011;21665;40.108;18.302;2023-02-15T02:17:37;100.30;;;41.08;;
35562;SDS011;21665;40.108;18.302;2023-02-15T02:20:28;84.20;;;39.60;;
35562;SDS011;21665;40.108;18.302;2023-02-15T02:23:07;78.43;;;36.97;;
35562;SDS011;21665;40.108;18.302;2023-02-15T02:28:50;86.28;;;38.22;;
35562;SDS011;21665;40.108;18.302;2023-02-15T02:34:16;75.82;;;36.10;;
35562;SDS011;21665;40.108;18.302;2023-02-15T02:37:23;85.80;;;37.60;;
35562;SDS011;21665;40.108;18.302;2023-02-15T02:43:40;79.50;;;37.45;;
35562;SDS011;21665;40.108;18.302;2023-02-15T02:46:29;85.50;;;36.65;;
35562;SDS011;21665;40.108;18.302;2023-02-15T02:49:15;76.38;;;36.53;;
35562;SDS011;21665;40.108;18.302;2023-02-15T02:51:45;83.95;;;38.03;;
35562;SDS011;21665;40.108;18.302;2023-02-15T02:54:11;88.00;;;37.78;;
35562;SDS011;21665;40.108;18.302;2023-02-15T02:56:44;87.20;;;37.47;;
35562;SDS011;21665;40.108;18.302;2023-02-15T03:02:01;88.60;;;37.20;;
35562;SDS011;21665;40.108;18.302;2023-02-15T03:04:39;89.05;;;37.88;;
35562;SDS011;21665;40.108;18.302;2023-02-15T03:07:11;89.47;;;38.47;;
35562;SDS011;21665;40.108;18.302;2023-02-15T03:09:49;87.75;;;35.90;;
35562;SDS011;21665;40.108;18.302;2023-02-15T03:12:22;78.00;;;35.38;;
35562;SDS011;21665;40.108;18.302;2023-02-15T03:14:56;78.32;;;35.78;;
35562;SDS011;21665;40.108;18.302;2023-02-15T03:17:44;86.63;;;35.72;;
35562;SDS011;21665;40.108;18.302;2023-02-15T03:20:22;79.22;;;35.45;;
35562;SDS011;21665;40.108;18.302;2023-02-15T03:23:03;79.60;;;33.10;;
35562;SDS011;21665;40.108;18.302;2023-02-15T03:25:35;83.63;;;36.28;;
35562;SDS011;21665;40.108;18.302;2023-02-15T03:28:07;72.93;;;33.72;;
35562;SDS011;21665;40.108;18.302;2023-02-15T03:30:47;80.20;;;33.88;;
35562;SDS011;21665;40.108;18.302;2023-02-15T03:33:18;72.95;;;33.28;;
35562;SDS011;21665;40.108;18.302;2023-02-15T03:44:37;71.45;;;33.20;;
35562;SDS011;21665;40.108;18.302;2023-02-15T03:47:22;78.32;;;34.70;;
35562;SDS011;21665;40.108;18.302;2023-02-15T03:53:06;74.68;;;33.22;;
35562;SDS011;21665;40.108;18.302;2023-02-15T03:55:36;69.30;;;33.13;;
35562;SDS011;21665;40.108;18.302;2023-02-15T03:58:03;72.88;;;35.25;;
35562;SDS011;21665;40.108;18.302;2023-02-15T04:00:58;76.68;;;34.08;;
35562;SDS011;21665;40.108;18.302;2023-02-15T04:04:01;80.68;;;34.38;;
35562;SDS011;21665;40.108;18.302;2023-02-15T04:06:34;70.00;;;34.03;;
35562;SDS011;21665;40.108;18.302;2023-02-15T04:09:03;71.63;;;32.95;;
35562;SDS011;21665;40.108;18.302;2023-02-15T04:11:48;73.55;;;35.70;;
35562;SDS011;21665;40.108;18.302;2023-02-15T04:14:14;67.13;;;32.13;;
35562;SDS011;21665;40.108;18.302;2023-02-15T04:17:00;76.18;;;34.50;;
35562;SDS011;21665;40.108;18.302;2023-02-15T04:19:26;69.97;;;32.47;;
35562;SDS011;21665;40.108;18.302;2023-02-15T04:22:11;72.10;;;32.83;;
35562;SDS011;21665;40.108;18.302;2023-02-15T04:24:56;82.95;;;35.15;;
35562;SDS011;21665;40.108;18.302;2023-02-15T04:27:47;73.57;;;33.78;;
35562;SDS011;21665;40.108;18.302;2023-02-15T04:30:17;74.38;;;34.67;;
35562;SDS011;21665;40.108;18.302;2023-02-15T04:32:46;74.95;;;34.22;;
35562;SDS011;21665;40.108;18.302;2023-02-15T04:35:13;72.95;;;34.85;;
35562;SDS011;21665;40.108;18.302;2023-02-15T04:37:40;78.28;;;33.55;;
35562;SDS011;21665;40.108;18.302;2023-02-15T04:40:10;84.75;;;37.50;;
35562;SDS011;21665;40.108;18.302;2023-02-15T04:42:39;74.50;;;34.53;;
35562;SDS011;21665;40.108;18.302;2023-02-15T04:45:05;79.00;;;35.58;;
35562;SDS011;21665;40.108;18.302;2023-02-15T04:47:36;75.82;;;35.40;;
35562;SDS011;21665;40.108;18.302;2023-02-15T04:50:02;78.65;;;36.95;;
35562;SDS011;21665;40.108;18.302;2023-02-15T04:52:29;80.07;;;35.45;;
35562;SDS011;21665;40.108;18.302;2023-02-15T04:55:02;78.75;;;36.40;;
35562;SDS011;21665;40.108;18.302;2023-02-15T04:57:29;79.22;;;36.00;;
35562;SDS011;21665;40.108;18.302;2023-02-15T04:59:58;67.63;;;34.88;;
35562;SDS011;21665;40.108;18.302;2023-02-15T05:02:25;72.35;;;35.72;;
35562;SDS011;21665;40.108;18.302;2023-02-15T05:04:51;81.05;;;35.83;;
35562;SDS011;21665;40.108;18.302;2023-02-15T05:07:18;70.35;;;34.65;;
35562;SDS011;21665;40.108;18.302;2023-02-15T05:09:45;71.93;;;34.97;;
35562;SDS011;21665;40.108;18.302;2023-02-15T05:12:12;80.43;;;35.55;;
35562;SDS011;21665;40.108;18.302;2023-02-15T05:14:39;75.05;;;34.92;;
35562;SDS011;21665;40.108;18.302;2023-02-15T05:17:06;76.72;;;37.70;;
35562;SDS011;21665;40.108;18.302;2023-02-15T05:19:32;69.80;;;34.65;;
35562;SDS011;21665;40.108;18.302;2023-02-15T05:21:59;73.88;;;35.47;;
35562;SDS011;21665;40.108;18.302;2023-02-15T05:24:25;71.60;;;35.85;;
35562;SDS011;21665;40.108;18.302;2023-02-15T05:27:11;75.88;;;36.85;;
35562;SDS011;21665;40.108;18.302;2023-02-15T05:29:56;78.45;;;37.38;;
35562;SDS011;21665;40.108;18.302;2023-02-15T05:32:23;82.25;;;35.80;;
35562;SDS011;21665;40.108;18.302;2023-02-15T05:34:50;76.20;;;35.95;;
35562;SDS011;21665;40.108;18.302;2023-02-15T05:37:16;70.65;;;35.70;;
35562;SDS011;21665;40.108;18.302;2023-02-15T05:39:44;75.53;;;35.78;;
35562;SDS011;21665;40.108;18.302;2023-02-15T05:42:11;73.03;;;35.10;;
35562;SDS011;21665;40.108;18.302;2023-02-15T05:44:37;87.07;;;36.10;;
35562;SDS011;21665;40.108;18.302;2023-02-15T05:47:04;72.30;;;35.85;;
35562;SDS011;21665;40.108;18.302;2023-02-15T05:49:32;85.75;;;38.28;;
35562;SDS011;21665;40.108;18.302;2023-02-15T05:51:59;89.60;;;39.30;;
35562;SDS011;21665;40.108;18.302;2023-02-15T05:54:26;74.38;;;37.03;;
35562;SDS011;21665;40.108;18.302;2023-02-15T05:56:53;81.65;;;38.45;;
35562;SDS011;21665;40.108;18.302;2023-02-15T05:59:20;81.15;;;37.75;;
35562;SDS011;21665;40.108;18.302;2023-02-15T06:01:48;74.88;;;37.75;;
35562;SDS011;21665;40.108;18.302;2023-02-15T06:04:18;82.75;;;36.67;;
35562;SDS011;21665;40.108;18.302;2023-02-15T06:06:47;78.30;;;37.80;;
35562;SDS011;21665;40.108;18.302;2023-02-15T06:09:14;83.35;;;37.20;;
35562;SDS011;21665;40.108;18.302;2023-02-15T06:11:44;74.57;;;36.95;;
35562;SDS011;21665;40.108;18.302;2023-02-15T06:14:11;78.22;;;38.58;;
35562;SDS011;21665;40.108;18.302;2023-02-15T06:16:37;83.97;;;37.78;;
35562;SDS011;21665;40.108;18.302;2023-02-15T06:19:04;84.82;;;37.72;;
35562;SDS011;21665;40.108;18.302;2023-02-15T06:21:31;80.45;;;39.65;;
35562;SDS011;21665;40.108;18.302;2023-02-15T06:23:57;89.95;;;41.38;;
35562;SDS011;21665;40.108;18.302;2023-02-15T06:26:24;99.43;;;40.33;;
35562;SDS011;21665;40.108;18.302;2023-02-15T06:28:51;81.57;;;38.92;;
35562;SDS011;21665;40.108;18.302;2023-02-15T06:31:17;84.95;;;38.90;;
35562;SDS011;21665;40.108;18.302;2023-02-15T06:33:44;67.30;;;33.55;;
35562;SDS011;21665;40.108;18.302;2023-02-15T06:36:10;77.75;;;35.88;;
35562;SDS011;21665;40.108;18.302;2023-02-15T06:38:38;67.63;;;35.25;;
35562;SDS011;21665;40.108;18.302;2023-02-15T06:41:05;72.53;;;35.05;;
35562;SDS011;21665;40.108;18.302;2023-02-15T06:43:31;66.13;;;35.13;;
35562;SDS011;21665;40.108;18.302;2023-02-15T06:46:00;54.22;;;31.55;;
35562;SDS011;21665;40.108;18.302;2023-02-15T06:48:26;60.92;;;32.22;;
35562;SDS011;21665;40.108;18.302;2023-02-15T06:50:53;57.67;;;35.88;;
35562;SDS011;21665;40.108;18.302;2023-02-15T06:53:20;58.72;;;36.97;;
35562;SDS011;21665;40.108;18.302;2023-02-15T06:55:46;61.75;;;39.80;;
35562;SDS011;21665;40.108;18.302;2023-02-15T06:58:13;61.47;;;39.78;;
35562;SDS011;21665;40.108;18.302;2023-02-15T07:00:39;58.40;;;38.92;;
35562;SDS011;21665;40.108;18.302;2023-02-15T07:03:05;65.03;;;39.15;;
35562;SDS011;21665;40.108;18.302;2023-02-15T07:05:33;69.13;;;39.67;;
35562;SDS011;21665;40.108;18.302;2023-02-15T07:08:00;67.13;;;38.22;;
35562;SDS011;21665;40.108;18.302;2023-02-15T07:10:27;67.60;;;40.25;;
35562;SDS011;21665;40.108;18.302;2023-02-15T07:12:54;80.80;;;40.65;;
35562;SDS011;21665;40.108;18.302;2023-02-15T07:15:20;78.93;;;42.78;;
35562;SDS011;21665;40.108;18.302;2023-02-15T07:17:47;90.88;;;47.47;;
35562;SDS011;21665;40.108;18.302;2023-02-15T07:20:23;74.93;;;40.67;;
35562;SDS011;21665;40.108;18.302;2023-02-15T07:22:50;76.78;;;39.42;;
35562;SDS011;21665;40.108;18.302;2023-02-15T07:25:17;61.53;;;37.78;;
35562;SDS011;21665;40.108;18.302;2023-02-15T07:27:44;63.05;;;35.60;;
35562;SDS011;21665;40.108;18.302;2023-02-15T07:30:11;50.80;;;33.58;;
35562;SDS011;21665;40.108;18.302;2023-02-15T07:32:40;49.78;;;34.22;;
35562;SDS011;21665;40.108;18.302;2023-02-15T07:35:26;50.78;;;33.70;;
35562;SDS011;21665;40.108;18.302;2023-02-15T07:37:53;49.15;;;34.45;;
35562;SDS011;21665;40.108;18.302;2023-02-15T07:40:20;50.90;;;34.55;;
35562;SDS011;21665;40.108;18.302;2023-02-15T07:42:49;49.58;;;37.85;;
35562;SDS011;21665;40.108;18.302;2023-02-15T07:45:18;48.78;;;35.75;;
35562;SDS011;21665;40.108;18.302;2023-02-15T07:47:45;50.00;;;37.30;;
35562;SDS011;21665;40.108;18.302;2023-02-15T07:50:12;46.60;;;34.75;;
35562;SDS011;21665;40.108;18.302;2023-02-15T07:52:38;42.22;;;32.55;;
35562;SDS011;21665;40.108;18.302;2023-02-15T07:55:17;43.83;;;33.05;;
35562;SDS011;21665;40.108;18.302;2023-02-15T07:57:44;50.35;;;35.80;;
35562;SDS011;21665;40.108;18.302;2023-02-15T08:00:13;49.88;;;36.38;;
35562;SDS011;21665;40.108;18.302;2023-02-15T08:02:42;51.22;;;36.88;;
35562;SDS011;21665;40.108;18.302;2023-02-15T08:05:17;57.88;;;36.03;;
35562;SDS011;21665;40.108;18.302;2023-02-15T08:07:43;54.15;;;37.28;;
35562;SDS011;21665;40.108;18.302;2023-02-15T08:10:10;46.00;;;35.35;;
35562;SDS011;21665;40.108;18.302;2023-02-15T08:12:57;46.90;;;35.20;;
35562;SDS011;21665;40.108;18.302;2023-02-15T08:15:26;46.47;;;34.78;;
35562;SDS011;21665;40.108;18.302;2023-02-15T08:17:52;48.05;;;33.58;;
35562;SDS011;21665;40.108;18.302;2023-02-15T08:20:18;52.05;;;34.25;;
35562;SDS011;21665;40.108;18.302;2023-02-15T08:22:45;46.95;;;33.33;;
35562;SDS011;21665;40.108;18.302;2023-02-15T08:25:13;51.83;;;32.78;;
35562;SDS011;21665;40.108;18.302;2023-02-15T08:27:39;49.53;;;32.05;;
35562;SDS011;21665;40.108;18.302;2023-02-15T08:30:06;46.63;;;31.85;;
35562;SDS011;21665;40.108;18.302;2023-02-15T08:32:33;44.65;;;29.70;;
35562;SDS011;21665;40.108;18.302;2023-02-15T08:35:00;44.65;;;29.75;;
35562;SDS011;21665;40.108;18.302;2023-02-15T08:37:27;57.42;;;29.73;;
35562;SDS011;21665;40.108;18.302;2023-02-15T08:39:53;49.30;;;29.73;;
35562;SDS011;21665;40.108;18.302;2023-02-15T08:42:20;45.08;;;28.25;;
35562;SDS011;21665;40.108;18.302;2023-02-15T08:44:49;43.40;;;30.10;;
35562;SDS011;21665;40.108;18.302;2023-02-15T08:47:17;41.35;;;27.45;;
35562;SDS011;21665;40.108;18.302;2023-02-15T08:49:44;40.75;;;28.20;;
35562;SDS011;21665;40.108;18.302;2023-02-15T08:52:10;40.88;;;27.83;;
35562;SDS011;21665;40.108;18.302;2023-02-15T08:54:37;38.20;;;26.98;;
35562;SDS011;21665;40.108;18.302;2023-02-15T08:57:03;40.72;;;26.88;;
35562;SDS011;21665;40.108;18.302;2023-02-15T08:59:30;45.50;;;27.55;;
35562;SDS011;21665;40.108;18.302;2023-02-15T09:01:59;40.03;;;26.83;;
35562;SDS011;21665;40.108;18.302;2023-02-15T09:04:27;36.30;;;25.60;;
35562;SDS011;21665;40.108;18.302;2023-02-15T09:06:56;38.67;;;27.63;;
35562;SDS011;21665;40.108;18.302;2023-02-15T09:09:22;39.17;;;28.60;;
35562;SDS011;21665;40.108;18.302;2023-02-15T09:11:49;46.85;;;27.73;;
35562;SDS011;21665;40.108;18.302;2023-02-15T09:20:48;40.63;;;28.48;;
35562;SDS011;21665;40.108;18.302;2023-02-15T09:23:21;33.10;;;25.88;;
35562;SDS011;21665;40.108;18.302;2023-02-15T09:25:56;29.92;;;26.08;;
35562;SDS011;21665;40.108;18.302;2023-02-15T09:28:43;32.00;;;26.10;;
35562;SDS011;21665;40.108;18.302;2023-02-15T09:31:18;27.17;;;24.48;;
35562;SDS011;21665;40.108;18.302;2023-02-15T09:33:50;27.95;;;25.15;;
35562;SDS011;21665;40.108;18.302;2023-02-15T09:36:18;28.23;;;25.45;;
35562;SDS011;21665;40.108;18.302;2023-02-15T09:38:52;29.70;;;25.50;;
35562;SDS011;21665;40.108;18.302;2023-02-15T09:41:33;27.10;;;24.30;;
35562;SDS011;21665;40.108;18.302;2023-02-15T09:49:40;27.15;;;24.35;;
35562;SDS011;21665;40.108;18.302;2023-02-15T09:54:57;29.27;;;26.23;;
35562;SDS011;21665;40.108;18.302;2023-02-15T10:00:24;28.88;;;26.00;;
35562;SDS011;21665;40.108;18.302;2023-02-15T10:03:27;29.97;;;26.90;;
35562;SDS011;21665;40.108;18.302;2023-02-15T10:06:28;31.70;;;27.83;;
35562;SDS011;21665;40.108;18.302;2023-02-15T10:36:53;35.30;;;26.27;;
35562;SDS011;21665;40.108;18.302;2023-02-15T10:48:29;29.38;;;25.70;;
35562;SDS011;21665;40.108;18.302;2023-02-15T10:51:13;28.58;;;25.67;;
35562;SDS011;21665;40.108;18.302;2023-02-15T10:56:45;27.73;;;25.23;;
35562;SDS011;21665;40.108;18.302;2023-02-15T11:07:47;26.20;;;23.83;;
35562;SDS011;21665;40.108;18.302;2023-02-15T11:10:37;27.15;;;24.55;;
35562;SDS011;21665;40.108;18.302;2023-02-15T11:13:09;26.55;;;24.02;;
35562;SDS011;21665;40.108;18.302;2023-02-15T11:18:50;26.92;;;24.60;;
35562;SDS011;21665;40.108;18.302;2023-02-15T11:21:38;27.95;;;25.30;;
35562;SDS011;21665;40.108;18.302;2023-02-15T11:24:10;26.42;;;23.67;;
35562;SDS011;21665;40.108;18.302;2023-02-15T11:26:43;27.60;;;25.10;;
35562;SDS011;21665;40.108;18.302;2023-02-15T11:29:35;26.48;;;24.17;;
35562;SDS011;21665;40.108;18.302;2023-02-15T11:34:48;26.58;;;23.77;;
35562;SDS011;21665;40.108;18.302;2023-02-15T11:37:19;26.58;;;24.00;;
35562;SDS011;21665;40.108;18.302;2023-02-15T11:39:54;26.85;;;24.10;;
35562;SDS011;21665;40.108;18.302;2023-02-15T11:42:23;26.90;;;24.30;;
35562;SDS011;21665;40.108;18.302;2023-02-15T11:47:20;26.20;;;24.00;;
35562;SDS011;21665;40.108;18.302;2023-02-15T11:49:47;26.90;;;24.08;;
35562;SDS011;21665;40.108;18.302;2023-02-15T11:52:14;26.48;;;24.08;;
35562;SDS011;21665;40.108;18.302;2023-02-15T11:54:43;26.33;;;24.13;;
35562;SDS011;21665;40.108;18.302;2023-02-15T12:00:33;27.30;;;24.75;;
35562;SDS011;21665;40.108;18.302;2023-02-15T12:03:02;28.13;;;25.33;;
35562;SDS011;21665;40.108;18.302;2023-02-15T12:05:39;26.95;;;24.52;;
35562;SDS011;21665;40.108;18.302;2023-02-15T12:08:15;26.67;;;24.45;;
35562;SDS011;21665;40.108;18.302;2023-02-15T12:11:06;29.30;;;26.42;;
35562;SDS011;21665;40.108;18.302;2023-02-15T12:13:55;27.92;;;25.27;;
35562;SDS011;21665;40.108;18.302;2023-02-15T12:16:27;30.00;;;27.30;;
35562;SDS011;21665;40.108;18.302;2023-02-15T12:18:58;30.90;;;26.45;;
35562;SDS011;21665;40.108;18.302;2023-02-15T12:21:30;27.98;;;25.25;;
35562;SDS011;21665;40.108;18.302;2023-02-15T12:24:02;28.10;;;25.50;;
35562;SDS011;21665;40.108;18.302;2023-02-15T12:26:35;28.92;;;25.83;;
35562;SDS011;21665;40.108;18.302;2023-02-15T12:29:07;28.83;;;26.02;;
35562;SDS011;21665;40.108;18.302;2023-02-15T12:31:45;28.98;;;26.08;;
35562;SDS011;21665;40.108;18.302;2023-02-15T12:34:36;30.63;;;27.52;;
35562;SDS011;21665;40.108;18.302;2023-02-15T12:37:09;31.67;;;28.77;;
35562;SDS011;21665;40.108;18.302;2023-02-15T12:39:52;33.47;;;30.25;;
35562;SDS011;21665;40.108;18.302;2023-02-15T12:42:21;32.08;;;28.88;;
35562;SDS011;21665;40.108;18.302;2023-02-15T12:44:54;31.02;;;28.00;;
35562;SDS011;21665;40.108;18.302;2023-02-15T12:47:25;31.27;;;28.45;;
35562;SDS011;21665;40.108;18.302;2023-02-15T12:50:07;30.80;;;27.80;;
35562;SDS011;21665;40.108;18.302;2023-02-15T12:52:46;31.52;;;28.25;;
35562;SDS011;21665;40.108;18.302;2023-02-15T12:55:25;30.63;;;27.63;;
35562;SDS011;21665;40.108;18.302;2023-02-15T12:58:14;30.17;;;27.38;;
35562;SDS011;21665;40.108;18.302;2023-02-15T13:03:38;31.10;;;27.98;;
35562;SDS011;21665;40.108;18.302;2023-02-15T13:06:26;31.63;;;28.77;;
35562;SDS011;21665;40.108;18.302;2023-02-15T13:12:17;30.83;;;27.83;;
35562;SDS011;21665;40.108;18.302;2023-02-15T13:14:45;30.65;;;27.73;;
35562;SDS011;21665;40.108;18.302;2023-02-15T13:17:17;30.25;;;27.60;;
35562;SDS011;21665;40.108;18.302;2023-02-15T13:19:51;31.23;;;28.38;;
35562;SDS011;21665;40.108;18.302;2023-02-15T13:22:21;30.52;;;27.55;;
35562;SDS011;21665;40.108;18.302;2023-02-15T13:27:36;29.77;;;26.55;;
35562;SDS011;21665;40.108;18.302;2023-02-15T13:30:27;29.40;;;26.67;;
35562;SDS011;21665;40.108;18.302;2023-02-15T13:36:00;30.38;;;27.50;;
35562;SDS011;21665;40.108;18.302;2023-02-15T13:41:30;30.02;;;27.00;;
35562;SDS011;21665;40.108;18.302;2023-02-15T13:50:26;30.15;;;27.23;;
35562;SDS011;21665;40.108;18.302;2023-02-15T13:52:39;29.20;;;26.50;;
35562;SDS011;21665;40.108;18.302;2023-02-15T13:55:23;29.90;;;26.95;;
35562;SDS011;21665;40.108;18.302;2023-02-15T13:58:18;30.48;;;27.42;;
35562;SDS011;21665;40.108;18.302;2023-02-15T14:01:04;29.05;;;26.33;;
35562;SDS011;21665;40.108;18.302;2023-02-15T14:07:01;28.52;;;25.92;;
35562;SDS011;21665;40.108;18.302;2023-02-15T14:17:58;28.42;;;25.85;;
35562;SDS011;21665;40.108;18.302;2023-02-15T14:20:49;31.00;;;25.95;;
35562;SDS011;21665;40.108;18.302;2023-02-15T14:23:29;27.85;;;25.42;;
35562;SDS011;21665;40.108;18.302;2023-02-15T14:26:09;29.67;;;26.65;;
35562;SDS011;21665;40.108;18.302;2023-02-15T14:32:02;28.63;;;25.80;;
35562;SDS011;21665;40.108;18.302;2023-02-15T14:34:46;29.65;;;26.85;;
35562;SDS011;21665;40.108;18.302;2023-02-15T14:37:29;27.55;;;25.05;;
35562;SDS011;21665;40.108;18.302;2023-02-15T14:40:07;28.33;;;25.52;;
35562;SDS011;21665;40.108;18.302;2023-02-15T14:43:23;28.30;;;25.63;;
35562;SDS011;21665;40.108;18.302;2023-02-15T14:48:49;27.80;;;25.08;;
35562;SDS011;21665;40.108;18.302;2023-02-15T14:54:54;28.90;;;26.05;;
35562;SDS011;21665;40.108;18.302;2023-02-15T15:05:14;28.38;;;25.75;;
35562;SDS011;21665;40.108;18.302;2023-02-15T15:08:03;31.50;;;28.30;;
35562;SDS011;21665;40.108;18.302;2023-02-15T15:10:35;30.63;;;27.33;;
35562;SDS011;21665;40.108;18.302;2023-02-15T15:15:56;28.17;;;25.30;;
35562;SDS011;21665;40.108;18.302;2023-02-15T15:18:44;27.88;;;25.13;;
35562;SDS011;21665;40.108;18.302;2023-02-15T15:44:25;28.65;;;25.77;;
35562;SDS011;21665;40.108;18.302;2023-02-15T15:47:24;29.15;;;26.05;;
35562;SDS011;21665;40.108;18.302;2023-02-15T15:49:57;30.90;;;27.65;;
35562;SDS011;21665;40.108;18.302;2023-02-15T15:52:25;28.98;;;26.17;;
35562;SDS011;21665;40.108;18.302;2023-02-15T15:55:02;30.80;;;27.70;;
35562;SDS011;21665;40.108;18.302;2023-02-15T15:57:41;28.77;;;25.80;;
35562;SDS011;21665;40.108;18.302;2023-02-15T16:03:20;28.42;;;25.33;;
35562;SDS011;21665;40.108;18.302;2023-02-15T16:05:51;27.42;;;24.63;;
35562;SDS011;21665;40.108;18.302;2023-02-15T16:08:34;31.25;;;26.00;;
35562;SDS011;21665;40.108;18.302;2023-02-15T16:11:12;31.73;;;26.90;;
35562;SDS011;21665;40.108;18.302;2023-02-15T16:13:42;31.65;;;26.73;;
35562;SDS011;21665;40.108;18.302;2023-02-15T16:16:11;35.97;;;28.90;;
35562;SDS011;21665;40.108;18.302;2023-02-15T16:18:39;44.20;;;39.60;;
35562;SDS011;21665;40.108;18.302;2023-02-15T16:21:16;32.85;;;27.33;;
35562;SDS011;21665;40.108;18.302;2023-02-15T16:24:01;33.13;;;28.63;;
35562;SDS011;21665;40.108;18.302;2023-02-15T16:26:38;32.10;;;26.88;;
35562;SDS011;21665;40.108;18.302;2023-02-15T16:29:29;40.20;;;30.13;;
35562;SDS011;21665;40.108;18.302;2023-02-15T16:31:59;34.60;;;29.83;;
35562;SDS011;21665;40.108;18.302;2023-02-15T16:37:42;32.15;;;27.98;;
35562;SDS011;21665;40.108;18.302;2023-02-15T16:42:52;37.10;;;30.38;;
35562;SDS011;21665;40.108;18.302;2023-02-15T16:45:24;33.80;;;29.92;;
35562;SDS011;21665;40.108;18.302;2023-02-15T16:47:53;38.78;;;29.63;;
35562;SDS011;21665;40.108;18.302;2023-02-15T16:50:28;34.90;;;29.50;;
35562;SDS011;21665;40.108;18.302;2023-02-15T16:53:01;34.42;;;30.08;;
35562;SDS011;21665;40.108;18.302;2023-02-15T16:55:37;34.17;;;29.90;;
35562;SDS011;21665;40.108;18.302;2023-02-15T16:58:11;35.80;;;30.88;;
35562;SDS011;21665;40.108;18.302;2023-02-15T17:00:42;34.38;;;30.65;;
35562;SDS011;21665;40.108;18.302;2023-02-15T17:13:37;36.35;;;31.65;;
35562;SDS011;21665;40.108;18.302;2023-02-15T17:18:49;38.78;;;31.52;;
35562;SDS011;21665;40.108;18.302;2023-02-15T17:21:23;42.22;;;31.73;;
35562;SDS011;21665;40.108;18.302;2023-02-15T17:23:59;42.22;;;32.63;;
35562;SDS011;21665;40.108;18.302;2023-02-15T17:26:31;39.92;;;31.60;;
35562;SDS011;21665;40.108;18.302;2023-02-15T17:29:11;45.42;;;32.60;;
35562;SDS011;21665;40.108;18.302;2023-02-15T17:31:48;42.10;;;32.47;;
35562;SDS011;21665;40.108;18.302;2023-02-15T17:37:11;45.60;;;34.25;;
35562;SDS011;21665;40.108;18.302;2023-02-15T17:39:48;42.63;;;32.58;;
35562;SDS011;21665;40.108;18.302;2023-02-15T17:42:15;45.10;;;33.20;;
35562;SDS011;21665;40.108;18.302;2023-02-15T17:44:42;49.05;;;32.53;;
35562;SDS011;21665;40.108;18.302;2023-02-15T17:47:21;46.75;;;33.92;;
35562;SDS011;21665;40.108;18.302;2023-02-15T17:49:52;57.20;;;36.25;;
35562;SDS011;21665;40.108;18.302;2023-02-15T17:52:19;50.55;;;34.85;;
35562;SDS011;21665;40.108;18.302;2023-02-15T17:54:46;56.72;;;36.35;;
35562;SDS011;21665;40.108;18.302;2023-02-15T17:57:32;61.85;;;38.15;;
35562;SDS011;21665;40.108;18.302;2023-02-15T17:59:58;53.83;;;36.58;;
35562;SDS011;21665;40.108;18.302;2023-02-15T18:02:43;62.50;;;39.00;;
35562;SDS011;21665;40.108;18.302;2023-02-15T18:05:29;62.72;;;40.75;;